createdAt,value
2023-05-28T00:00:07.458Z,9.92
2023-05-28T00:02:39.180Z,9.71
2023-05-28T00:05:06.323Z,9.87
2023-05-28T00:07:32.976Z,9.75
2023-05-28T00:09:59.488Z,9.65
2023-05-28T00:12:26.546Z,9.58
2023-05-28T00:14:53.642Z,9.56
2023-05-28T00:17:20.305Z,9.43
2023-05-28T00:19:46.761Z,9.39
2023-05-28T00:22:13.646Z,9.45
2023-05-28T00:24:40.352Z,9.58
2023-05-28T00:27:09.480Z,9.53
2023-05-28T00:29:36.040Z,9.60
2023-05-28T00:32:02.952Z,9.48
2023-05-28T00:34:29.809Z,9.39
2023-05-28T00:36:56.442Z,9.35
2023-05-28T00:39:23.216Z,9.40
2023-05-28T00:42:01.755Z,9.43
2023-05-28T00:44:28.708Z,9.22
2023-05-28T00:46:56.607Z,9.30
2023-05-28T00:49:24.327Z,9.19
2023-05-28T00:51:51.113Z,9.16
2023-05-28T00:54:17.730Z,9.29
2023-05-28T00:56:44.307Z,9.29
2023-05-28T00:59:13.389Z,9.36
2023-05-28T01:01:40.727Z,9.43
2023-05-28T01:04:07.377Z,9.48
2023-05-28T01:06:34.189Z,9.48
2023-05-28T01:09:00.941Z,9.59
2023-05-28T01:11:28.011Z,9.59
2023-05-28T01:13:55.530Z,9.66
2023-05-28T01:16:22.609Z,9.70
2023-05-28T01:18:49.771Z,9.53
2023-05-28T01:21:17.495Z,9.36
2023-05-28T01:23:48.577Z,9.42
2023-05-28T01:26:16.910Z,9.48
2023-05-28T01:28:47.473Z,9.55
2023-05-28T01:31:15.607Z,9.47
2023-05-28T01:33:43.755Z,9.44
2023-05-28T01:36:25.138Z,9.37
2023-05-28T01:38:54.014Z,9.25
2023-05-28T01:41:21.309Z,9.24
2023-05-28T01:43:48.528Z,9.28
2023-05-28T01:46:15.995Z,9.41
2023-05-28T01:48:43.010Z,9.46
2023-05-28T01:51:11.211Z,9.43
2023-05-28T01:53:37.755Z,9.15
2023-05-28T01:56:04.714Z,8.98
2023-05-28T01:58:31.640Z,8.80
2023-05-28T02:01:12.943Z,8.83
2023-05-28T02:03:39.564Z,8.85
2023-05-28T02:06:06.222Z,8.82
2023-05-28T02:08:32.755Z,8.80
2023-05-28T02:11:01.010Z,8.67
2023-05-28T02:13:28.825Z,8.57
2023-05-28T02:15:56.800Z,8.56
2023-05-28T02:18:23.595Z,8.52
2023-05-28T02:20:51.319Z,8.45
2023-05-28T02:23:17.907Z,8.39
2023-05-28T02:25:47.139Z,8.35
2023-05-28T02:28:13.659Z,8.34
2023-05-28T02:30:40.443Z,8.23
2023-05-28T02:33:08.125Z,8.04
2023-05-28T02:35:34.612Z,7.98
2023-05-28T02:38:01.079Z,7.93
2023-05-28T02:40:27.674Z,7.86
2023-05-28T02:42:54.189Z,7.89
2023-05-28T02:45:20.686Z,7.63
2023-05-28T02:47:47.273Z,7.51
2023-05-28T02:50:14.087Z,7.49
2023-05-28T02:52:53.749Z,7.39
2023-05-28T02:55:20.342Z,7.49
2023-05-28T02:57:47.529Z,7.53
2023-05-28T03:00:14.823Z,7.52
2023-05-28T03:02:42.099Z,7.55
2023-05-28T03:05:08.847Z,7.60
2023-05-28T03:07:35.538Z,7.77
2023-05-28T03:10:02.585Z,7.57
2023-05-28T03:12:33.150Z,7.46
2023-05-28T03:14:59.663Z,7.29
2023-05-28T03:17:26.340Z,7.26
2023-05-28T03:19:52.819Z,7.39
2023-05-28T03:22:21.692Z,7.22
2023-05-28T03:24:48.375Z,6.94
2023-05-28T03:27:17.619Z,6.98
2023-05-28T03:29:44.662Z,7.00
2023-05-28T03:32:18.553Z,6.90
2023-05-28T03:34:45.118Z,6.62
2023-05-28T03:37:11.861Z,6.62
2023-05-28T03:39:40.511Z,6.71
2023-05-28T03:42:08.588Z,6.70
2023-05-28T03:44:35.865Z,6.74
2023-05-28T03:47:03.367Z,6.78
2023-05-28T03:49:30.149Z,6.90
2023-05-28T03:51:58.014Z,6.84
2023-05-28T03:54:26.203Z,6.92
2023-05-28T03:56:52.657Z,7.10
2023-05-28T03:59:21.106Z,7.10
2023-05-28T04:01:48.122Z,7.19
2023-05-28T04:04:14.773Z,7.27
2023-05-28T04:06:41.374Z,7.47
2023-05-28T04:09:08.325Z,7.57
2023-05-28T04:11:36.117Z,7.72
2023-05-28T04:14:02.793Z,7.67
2023-05-28T04:16:29.337Z,7.76
2023-05-28T04:18:56.149Z,7.70
2023-05-28T04:21:23.312Z,7.66
2023-05-28T04:23:50.075Z,7.68
2023-05-28T04:26:17.304Z,7.84
2023-05-28T04:28:43.828Z,8.02
2023-05-28T04:31:10.961Z,7.98
2023-05-28T04:33:37.585Z,8.07
2023-05-28T04:36:04.771Z,8.05
2023-05-28T04:38:34.238Z,8.13
2023-05-28T04:41:01.216Z,8.15
2023-05-28T04:43:30.619Z,8.16
2023-05-28T04:45:59.938Z,8.39
2023-05-28T04:48:27.051Z,8.45
2023-05-28T04:50:54.883Z,8.61
2023-05-28T04:53:21.600Z,8.70
2023-05-28T04:55:48.173Z,8.89
2023-05-28T04:58:15.126Z,8.93
2023-05-28T05:00:41.624Z,9.06
2023-05-28T05:03:09.640Z,9.25
2023-05-28T05:05:36.198Z,9.31
2023-05-28T05:08:02.963Z,9.50
2023-05-28T05:10:29.639Z,9.64
2023-05-28T05:12:56.585Z,9.81
2023-05-28T05:15:23.083Z,9.88
2023-05-28T05:17:49.481Z,9.92
2023-05-28T05:20:15.927Z,10.02
2023-05-28T05:22:42.429Z,10.16
2023-05-28T05:25:09.135Z,10.36
2023-05-28T05:27:37.600Z,10.50
2023-05-28T05:30:06.406Z,10.62
2023-05-28T05:32:33.258Z,10.76
2023-05-28T05:34:59.780Z,10.95
2023-05-28T05:37:26.510Z,11.08
2023-05-28T05:40:28.940Z,11.27
2023-05-28T05:43:15.765Z,11.51
2023-05-28T05:45:42.458Z,11.66
2023-05-28T05:48:10.995Z,11.73
2023-05-28T05:50:56.861Z,11.90
2023-05-28T05:53:24.382Z,12.02
2023-05-28T05:55:51.821Z,12.15
2023-05-28T05:58:18.946Z,12.31
2023-05-28T06:00:46.297Z,12.45
2023-05-28T06:03:13.377Z,12.56
2023-05-28T06:05:59.151Z,12.74
2023-05-28T06:08:49.667Z,12.92
2023-05-28T06:11:24.424Z,13.34
2023-05-28T06:13:51.770Z,13.59
2023-05-28T06:16:19.033Z,13.81
2023-05-28T06:18:45.692Z,13.93
2023-05-28T06:21:12.287Z,14.01
2023-05-28T06:23:38.833Z,14.11
2023-05-28T06:26:06.538Z,14.18
2023-05-28T06:28:33.095Z,14.28
2023-05-28T06:31:00.220Z,14.33
2023-05-28T06:33:26.863Z,14.40
2023-05-28T06:35:53.711Z,14.42
2023-05-28T06:38:20.616Z,14.51
2023-05-28T06:40:47.306Z,14.60
2023-05-28T06:43:14.006Z,14.62
2023-05-28T06:45:58.518Z,14.76
2023-05-28T06:48:25.051Z,14.81
2023-05-28T06:50:51.601Z,14.91
2023-05-28T06:53:18.214Z,15.02
2023-05-28T06:55:45.511Z,15.07
2023-05-28T06:58:24.179Z,15.12
2023-05-28T07:01:09.074Z,15.21
2023-05-28T07:03:49.621Z,15.34
2023-05-28T07:06:20.333Z,15.40
2023-05-28T07:08:47.532Z,15.47
2023-05-28T07:11:15.325Z,15.60
2023-05-28T07:13:46.327Z,15.74
2023-05-28T07:16:12.988Z,15.75
2023-05-28T07:18:40.344Z,15.80
2023-05-28T07:21:06.888Z,15.88
2023-05-28T07:23:39.016Z,15.95
2023-05-28T07:26:06.301Z,16.08
2023-05-28T07:28:32.860Z,16.03
2023-05-28T07:30:59.302Z,16.11
2023-05-28T07:33:26.050Z,16.06
2023-05-28T07:35:53.413Z,16.24
2023-05-28T07:38:20.124Z,16.19
2023-05-28T07:40:51.179Z,16.31
2023-05-28T07:43:31.919Z,16.33
2023-05-28T07:46:03.993Z,16.51
2023-05-28T07:48:37.875Z,16.53
2023-05-28T07:51:18.212Z,16.52
2023-05-28T07:53:49.334Z,16.48
2023-05-28T07:56:21.897Z,16.48
2023-05-28T07:58:48.552Z,16.51
2023-05-28T08:01:18.065Z,16.66
2023-05-28T08:03:44.877Z,16.84
2023-05-28T08:06:12.690Z,16.95
2023-05-28T08:08:39.508Z,17.15
2023-05-28T08:11:08.106Z,17.26
2023-05-28T08:13:34.622Z,17.36
2023-05-28T08:16:05.821Z,17.41
2023-05-28T08:18:48.188Z,17.19
2023-05-28T08:21:15.292Z,17.44
2023-05-28T08:23:42.339Z,17.59
2023-05-28T08:26:10.063Z,17.71
2023-05-28T08:28:38.102Z,17.84
2023-05-28T08:31:05.093Z,17.97
2023-05-28T08:33:54.714Z,17.69
2023-05-28T08:36:21.577Z,17.76
2023-05-28T08:38:50.220Z,17.80
2023-05-28T08:41:20.302Z,18.06
2023-05-28T08:43:46.998Z,18.16
2023-05-28T08:46:14.030Z,18.40
2023-05-28T08:48:59.256Z,18.51
2023-05-28T08:51:28.602Z,18.61
2023-05-28T08:53:56.762Z,18.78
2023-05-28T08:56:29.240Z,18.78
2023-05-28T08:58:56.373Z,18.68
2023-05-28T09:01:23.715Z,18.78
2023-05-28T09:04:05.781Z,19.04
2023-05-28T09:06:39.302Z,19.19
2023-05-28T09:09:11.898Z,19.08
2023-05-28T09:11:44.032Z,18.94
2023-05-28T09:14:12.853Z,19.00
2023-05-28T09:16:43.909Z,19.14
2023-05-28T09:19:18.371Z,19.23
2023-05-28T09:21:56.867Z,19.21
2023-05-28T09:24:26.939Z,19.34
2023-05-28T09:27:12.395Z,19.44
2023-05-28T09:29:40.363Z,19.40
2023-05-28T09:32:06.877Z,19.51
2023-05-28T09:34:34.601Z,19.75
2023-05-28T09:37:01.214Z,19.85
2023-05-28T09:39:28.601Z,19.92
2023-05-28T09:42:10.256Z,20.06
2023-05-28T09:44:40.274Z,19.94
2023-05-28T09:47:17.621Z,20.07
2023-05-28T09:49:48.493Z,20.10
2023-05-28T09:52:22.234Z,19.96
2023-05-28T09:54:52.943Z,19.98
2023-05-28T09:57:28.541Z,20.03
2023-05-28T09:59:56.662Z,20.00
2023-05-28T10:02:43.193Z,20.02
2023-05-28T10:05:12.012Z,20.36
2023-05-28T10:07:41.538Z,20.58
2023-05-28T10:10:11.319Z,20.42
2023-05-28T10:12:41.093Z,20.26
2023-05-28T10:15:08.508Z,20.34
2023-05-28T10:17:36.949Z,20.54
2023-05-28T10:20:06.034Z,20.53
2023-05-28T10:22:33.339Z,20.66
2023-05-28T10:25:01.765Z,20.77
2023-05-28T10:27:34.770Z,20.65
2023-05-28T10:30:04.871Z,20.89
2023-05-28T10:32:39.290Z,20.73
2023-05-28T10:35:06.367Z,20.62
2023-05-28T10:37:32.946Z,20.94
2023-05-28T10:40:00.435Z,21.19
2023-05-28T10:42:27.170Z,21.09
2023-05-28T10:45:07.707Z,21.19
2023-05-28T10:47:35.849Z,21.42
2023-05-28T10:50:18.300Z,21.41
2023-05-28T10:53:08.573Z,21.07
2023-05-28T10:55:55.474Z,21.15
2023-05-28T10:58:29.569Z,21.25
2023-05-28T11:01:19.897Z,21.29
2023-05-28T11:03:54.192Z,21.31
2023-05-28T11:06:21.336Z,21.54
2023-05-28T11:08:49.419Z,21.51
2023-05-28T11:11:18.427Z,21.50
2023-05-28T11:13:47.162Z,21.75
2023-05-28T11:16:16.511Z,21.65
2023-05-28T11:19:02.972Z,21.90
2023-05-28T11:21:29.612Z,21.94
2023-05-28T11:24:01.158Z,22.05
2023-05-28T11:26:28.491Z,22.19
2023-05-28T11:28:55.360Z,22.37
2023-05-28T11:31:22.323Z,22.52
2023-05-28T11:33:51.808Z,22.63
2023-05-28T11:36:20.782Z,22.74
2023-05-28T11:38:47.968Z,22.61
2023-05-28T11:41:14.485Z,22.55
2023-05-28T11:43:41.052Z,22.30
2023-05-28T11:46:07.725Z,22.35
2023-05-28T11:48:38.966Z,22.19
2023-05-28T11:51:06.489Z,22.04
2023-05-28T11:53:43.536Z,22.25
2023-05-28T11:56:11.222Z,22.42
2023-05-28T11:58:41.383Z,22.51
2023-05-28T12:01:08.353Z,22.71
2023-05-28T12:03:36.027Z,22.71
2023-05-28T12:06:02.880Z,22.67
2023-05-28T12:08:29.499Z,22.63
2023-05-28T12:11:07.245Z,22.65
2023-05-28T12:13:39.008Z,22.73
2023-05-28T12:16:11.079Z,22.64
2023-05-28T12:18:44.235Z,22.92
2023-05-28T12:21:12.569Z,23.07
2023-05-28T12:23:39.085Z,23.41
2023-05-28T12:26:10.103Z,23.43
2023-05-28T12:28:40.758Z,23.52
2023-05-28T12:31:08.553Z,23.38
2023-05-28T12:33:35.626Z,23.42
2023-05-28T12:36:02.270Z,23.36
2023-05-28T12:38:29.088Z,23.33
2023-05-28T12:40:56.104Z,23.48
2023-05-28T12:43:23.035Z,23.52
2023-05-28T12:45:49.649Z,23.67
2023-05-28T12:48:16.469Z,23.88
2023-05-28T12:50:43.041Z,24.00
2023-05-28T12:53:09.659Z,24.00
2023-05-28T12:55:36.299Z,24.07
2023-05-28T12:58:03.101Z,24.14
2023-05-28T13:00:29.922Z,24.36
2023-05-28T13:02:56.498Z,24.34
2023-05-28T13:05:23.449Z,24.67
2023-05-28T13:07:50.093Z,24.86
2023-05-28T13:10:16.758Z,24.89
2023-05-28T13:12:43.266Z,25.60
2023-05-28T13:15:10.192Z,26.30
2023-05-28T13:17:36.793Z,26.40
2023-05-28T13:20:07.613Z,26.59
2023-05-28T13:22:36.627Z,26.91
2023-05-28T13:25:04.197Z,27.65
2023-05-28T13:27:31.475Z,27.93
2023-05-28T13:29:58.594Z,28.66
2023-05-28T13:32:25.966Z,29.17
2023-05-28T13:34:52.999Z,28.72
2023-05-28T13:37:19.632Z,28.94
2023-05-28T13:39:47.285Z,28.73
2023-05-28T13:42:14.216Z,28.89
2023-05-28T13:44:41.216Z,28.77
2023-05-28T13:47:08.278Z,29.11
2023-05-28T13:49:34.877Z,29.13
2023-05-28T13:52:01.526Z,29.03
2023-05-28T13:54:28.128Z,28.89
2023-05-28T13:56:54.650Z,29.53
2023-05-28T13:59:21.178Z,29.35
2023-05-28T14:01:47.983Z,29.65
2023-05-28T14:04:14.671Z,28.35
2023-05-28T14:06:41.170Z,28.66
2023-05-28T14:09:07.678Z,27.89
2023-05-28T14:11:58.467Z,28.60
2023-05-28T14:14:20.629Z,29.13
2023-05-28T14:16:47.243Z,28.53
2023-05-28T14:19:13.750Z,29.44
2023-05-28T14:21:41.139Z,29.85
2023-05-28T14:24:07.752Z,30.24
2023-05-28T14:26:34.262Z,30.63
2023-05-28T14:29:00.790Z,30.54
2023-05-28T14:31:27.701Z,29.91
2023-05-28T14:33:54.363Z,29.14
2023-05-28T14:36:21.276Z,29.83
2023-05-28T14:38:48.040Z,30.31
2023-05-28T14:41:14.569Z,29.93
2023-05-28T14:43:41.093Z,28.22
2023-05-28T14:46:07.660Z,29.10
2023-05-28T14:48:34.257Z,28.60
2023-05-28T14:51:02.497Z,29.35
2023-05-28T14:53:29.385Z,29.13
2023-05-28T14:55:56.051Z,28.26
2023-05-28T14:58:23.948Z,28.80
2023-05-28T15:00:50.455Z,29.37
2023-05-28T15:03:17.164Z,29.66
2023-05-28T15:05:43.845Z,28.95
2023-05-28T15:08:11.420Z,29.39
2023-05-28T15:10:37.938Z,29.36
2023-05-28T15:13:04.778Z,28.56
2023-05-28T15:15:31.289Z,29.19
2023-05-28T15:17:57.798Z,29.97
2023-05-28T15:20:24.450Z,30.10
2023-05-28T15:22:51.053Z,29.00
2023-05-28T15:25:20.630Z,29.41
2023-05-28T15:27:47.553Z,29.78
2023-05-28T15:30:15.456Z,30.24
2023-05-28T15:32:42.461Z,29.29
2023-05-28T15:35:09.758Z,28.17
2023-05-28T15:37:36.491Z,29.15
2023-05-28T15:40:03.749Z,30.00
2023-05-28T15:42:30.466Z,29.49
2023-05-28T15:44:57.157Z,29.36
2023-05-28T15:47:23.727Z,29.05
2023-05-28T15:49:50.267Z,29.80
2023-05-28T15:52:16.823Z,28.85
2023-05-28T15:54:43.587Z,28.45
2023-05-28T15:57:10.826Z,27.96
2023-05-28T15:59:43.952Z,27.99
2023-05-28T16:02:14.666Z,28.40
2023-05-28T16:04:41.225Z,28.57
2023-05-28T16:07:08.039Z,29.03
2023-05-28T16:09:35.690Z,29.20
2023-05-28T16:12:03.326Z,28.86
2023-05-28T16:14:35.048Z,29.79
2023-05-28T16:17:02.575Z,28.91
2023-05-28T16:19:29.431Z,27.60
2023-05-28T16:21:56.136Z,28.66
2023-05-28T16:24:22.645Z,29.43
2023-05-28T16:26:51.114Z,29.31
2023-05-28T16:29:21.621Z,29.57
2023-05-28T16:31:48.630Z,28.99
2023-05-28T16:34:16.177Z,29.28
2023-05-28T16:36:43.545Z,28.97
2023-05-28T16:39:10.243Z,28.73
2023-05-28T16:41:36.930Z,28.40
2023-05-28T16:44:03.625Z,28.56
2023-05-28T16:46:30.332Z,28.20
2023-05-28T16:48:57.125Z,28.60
2023-05-28T16:51:23.999Z,28.38
2023-05-28T16:53:51.668Z,28.89
2023-05-28T16:56:18.695Z,28.94
2023-05-28T16:58:45.189Z,28.42
2023-05-28T17:01:12.122Z,27.59
2023-05-28T17:03:38.739Z,25.92
2023-05-28T17:06:05.495Z,26.33
2023-05-28T17:08:32.113Z,25.90
2023-05-28T17:10:58.718Z,24.93
2023-05-28T17:13:25.268Z,24.66
2023-05-28T17:15:51.885Z,24.66
2023-05-28T17:18:18.516Z,24.45
2023-05-28T17:20:45.179Z,23.97
2023-05-28T17:23:11.796Z,24.09
2023-05-28T17:25:38.336Z,23.69
2023-05-28T17:28:04.892Z,23.55
2023-05-28T17:30:31.377Z,23.46
2023-05-28T17:32:57.908Z,23.12
2023-05-28T17:35:24.436Z,23.19
2023-05-28T17:37:51.104Z,23.02
2023-05-28T17:40:17.636Z,22.88
2023-05-28T17:42:44.163Z,22.84
2023-05-28T17:45:11.005Z,22.60
2023-05-28T17:47:37.591Z,22.73
2023-05-28T17:50:04.402Z,22.82
2023-05-28T17:52:31.220Z,22.85
2023-05-28T17:54:57.809Z,22.74
2023-05-28T17:57:24.419Z,22.50
2023-05-28T17:59:51.354Z,22.64
2023-05-28T18:02:17.909Z,22.61
2023-05-28T18:04:44.476Z,22.57
2023-05-28T18:07:10.918Z,22.50
2023-05-28T18:09:37.475Z,22.50
2023-05-28T18:12:04.180Z,22.32
2023-05-28T18:14:31.270Z,22.25
2023-05-28T18:17:02.348Z,22.11
2023-05-28T18:19:29.835Z,22.11
2023-05-28T18:21:56.529Z,22.07
2023-05-28T18:24:23.148Z,21.96
2023-05-28T18:26:49.740Z,21.89
2023-05-28T18:29:16.239Z,21.81
2023-05-28T18:31:44.612Z,21.73
2023-05-28T18:34:11.302Z,21.67
2023-05-28T18:36:38.403Z,21.59
2023-05-28T18:39:05.405Z,21.52
2023-05-28T18:41:31.986Z,21.39
2023-05-28T18:43:58.574Z,21.31
2023-05-28T18:46:25.586Z,21.16
2023-05-28T18:48:52.162Z,21.07
2023-05-28T18:51:18.731Z,20.95
2023-05-28T18:53:45.450Z,20.84
2023-05-28T18:56:11.992Z,20.57
2023-05-28T18:58:38.620Z,20.34
2023-05-28T19:01:05.723Z,19.59
2023-05-28T19:03:32.271Z,18.43
2023-05-28T19:05:58.896Z,17.87
2023-05-28T19:08:25.695Z,17.32
2023-05-28T19:10:52.446Z,17.07
2023-05-28T19:13:19.084Z,16.89
2023-05-28T19:15:46.314Z,16.57
2023-05-28T19:18:13.020Z,16.47
2023-05-28T19:20:40.213Z,16.32
2023-05-28T19:23:07.080Z,16.24
2023-05-28T19:25:33.753Z,15.85
2023-05-28T19:28:00.435Z,15.78
2023-05-28T19:30:27.128Z,15.80
2023-05-28T19:32:53.697Z,15.59
2023-05-28T19:35:20.265Z,15.57
2023-05-28T19:37:50.006Z,15.53
2023-05-28T19:40:16.522Z,15.51
2023-05-28T19:42:43.096Z,15.19
2023-05-28T19:45:10.153Z,15.07
2023-05-28T19:47:37.088Z,14.92
2023-05-28T19:50:05.636Z,14.83
2023-05-28T19:52:32.165Z,14.89
2023-05-28T19:54:59.730Z,14.84
2023-05-28T19:57:26.743Z,14.79
2023-05-28T19:59:55.364Z,14.61
2023-05-28T20:02:27.332Z,14.64
2023-05-28T20:04:54.506Z,14.52
2023-05-28T20:07:21.281Z,14.51
2023-05-28T20:09:47.825Z,14.26
2023-05-28T20:12:14.333Z,14.22
2023-05-28T20:14:40.897Z,14.27
2023-05-28T20:17:09.982Z,14.17
2023-05-28T20:19:40.379Z,14.12
2023-05-28T20:22:07.232Z,14.13
2023-05-28T20:24:36.360Z,14.15
2023-05-28T20:27:03.261Z,14.25
2023-05-28T20:29:35.886Z,14.30
2023-05-28T20:32:05.413Z,14.30
2023-05-28T20:34:32.825Z,14.24
2023-05-28T20:37:01.006Z,14.28
2023-05-28T20:39:29.078Z,14.34
2023-05-28T20:41:56.823Z,14.25
2023-05-28T20:44:23.604Z,14.15
2023-05-28T20:46:52.952Z,13.96
2023-05-28T20:49:19.907Z,14.00
2023-05-28T20:51:46.906Z,14.03
2023-05-28T20:54:13.411Z,13.87
2023-05-28T20:56:41.233Z,13.86
2023-05-28T20:59:08.169Z,13.85
2023-05-28T21:01:35.364Z,13.85
2023-05-28T21:04:02.019Z,13.93
2023-05-28T21:06:29.904Z,13.84
2023-05-28T21:08:56.920Z,13.96
2023-05-28T21:11:24.622Z,13.72
2023-05-28T21:13:53.525Z,13.82
2023-05-28T21:16:20.061Z,13.65
2023-05-28T21:18:46.671Z,13.62
2023-05-28T21:21:13.558Z,13.59
2023-05-28T21:23:40.104Z,13.75
2023-05-28T21:26:06.745Z,13.72
2023-05-28T21:28:33.262Z,13.49
2023-05-28T21:31:01.380Z,13.39
2023-05-28T21:33:28.360Z,13.46
2023-05-28T21:35:56.107Z,13.18
2023-05-28T21:38:26.384Z,13.27
2023-05-28T21:40:53.484Z,13.18
2023-05-28T21:43:23.010Z,13.12
2023-05-28T21:45:49.609Z,13.20
2023-05-28T21:48:17.055Z,13.23
2023-05-28T21:50:44.036Z,13.16
2023-05-28T21:53:13.652Z,13.12
2023-05-28T21:55:41.011Z,13.08
2023-05-28T21:58:07.606Z,13.21
2023-05-28T22:00:34.391Z,12.98
2023-05-28T22:03:01.234Z,13.05
2023-05-28T22:05:27.842Z,12.92
2023-05-28T22:07:54.742Z,12.86
2023-05-28T22:10:21.277Z,12.79
2023-05-28T22:12:50.657Z,12.94
2023-05-28T22:15:17.292Z,12.76
2023-05-28T22:17:43.877Z,12.87
2023-05-28T22:20:11.180Z,12.94
2023-05-28T22:22:39.077Z,12.86
2023-05-28T22:25:08.095Z,12.81
2023-05-28T22:27:35.782Z,12.72
2023-05-28T22:30:03.957Z,12.64
2023-05-28T22:32:31.000Z,12.57
2023-05-28T22:34:57.621Z,12.53
2023-05-28T22:37:24.468Z,12.48
2023-05-28T22:39:50.963Z,12.42
2023-05-28T22:42:17.400Z,12.37
2023-05-28T22:44:43.911Z,12.33
2023-05-28T22:47:10.933Z,12.25
2023-05-28T22:49:37.538Z,12.10
2023-05-28T22:52:04.843Z,12.07
2023-05-28T22:54:32.112Z,11.91
2023-05-28T22:56:58.732Z,11.90
2023-05-28T22:59:25.537Z,11.76
2023-05-28T23:01:52.359Z,11.54
2023-05-28T23:04:18.867Z,11.36
2023-05-28T23:06:45.476Z,11.38
2023-05-28T23:09:12.267Z,11.13
2023-05-28T23:11:42.946Z,11.18
2023-05-28T23:14:10.136Z,11.05
2023-05-28T23:16:36.956Z,11.17
2023-05-28T23:19:03.565Z,10.96
2023-05-28T23:21:30.769Z,10.85
2023-05-28T23:23:57.392Z,10.64
2023-05-28T23:26:23.847Z,10.70
2023-05-28T23:28:52.123Z,10.68
2023-05-28T23:31:19.425Z,10.73
2023-05-28T23:33:46.081Z,10.74
2023-05-28T23:36:12.872Z,10.64
2023-05-28T23:38:39.506Z,10.61
2023-05-28T23:41:06.053Z,10.56
2023-05-28T23:43:32.502Z,10.59
2023-05-28T23:45:59.312Z,10.48
2023-05-28T23:48:26.297Z,10.46
2023-05-28T23:50:52.802Z,10.35
2023-05-28T23:53:19.324Z,10.17
2023-05-28T23:55:45.896Z,10.09
2023-05-28T23:58:12.382Z,9.98
